Time;durP1;ratioP1;P1;durP2;ratioP2;P2;SDS_P1;SDS_P2;PMS_P1;PMS_P2;Temp;Humidity;BMP_temperature;BMP_pressure;BME280_temperature;BME280_humidity;BME280_pressure;Samples;Min_cycle;Max_cycle;Signal;HPM_P1;HPM_P2
2021/11/16 00:00:39;;;;;;;3.45;2.30;;;21.40;52.10;;;;;;5037418;28;20033;-57
2021/11/16 00:03:05;;;;;;;3.35;2.50;;;21.40;52.10;;;;;;5036660;28;20052;-58
2021/11/16 00:05:31;;;;;;;3.22;2.50;;;21.40;52.10;;;;;;5029200;28;20055;-53
2021/11/16 00:07:57;;;;;;;3.15;2.30;;;21.40;52.10;;;;;;5028867;28;20041;-58
2021/11/16 00:10:24;;;;;;;4.13;2.40;;;21.40;52.10;;;;;;5036490;28;20128;-58
2021/11/16 00:12:51;;;;;;;3.83;2.70;;;21.40;52.10;;;;;;5033595;28;20064;-58
2021/11/16 00:15:16;;;;;;;3.05;2.30;;;21.40;52.10;;;;;;5040717;28;20021;-56
2021/11/16 00:17:42;;;;;;;3.40;2.60;;;21.40;52.20;;;;;;5035324;28;20047;-58
2021/11/16 00:20:12;;;;;;;3.25;2.63;;;21.40;52.20;;;;;;5042428;28;20028;-61
2021/11/16 00:22:41;;;;;;;3.47;2.60;;;21.40;52.20;;;;;;5032725;28;20042;-55
2021/11/16 00:27:41;;;;;;;3.58;2.50;;;21.40;52.20;;;;;;5032407;28;20112;-57
2021/11/16 00:30:08;;;;;;;3.33;2.45;;;21.30;52.20;;;;;;5036113;28;20055;-59
2021/11/16 00:32:33;;;;;;;3.65;2.40;;;21.30;52.20;;;;;;5034054;28;20048;-59
2021/11/16 00:35:00;;;;;;;3.30;2.38;;;21.30;52.20;;;;;;5033252;28;22064;-58
2021/11/16 00:37:26;;;;;;;3.30;2.53;;;21.30;52.20;;;;;;5035883;28;20036;-59
2021/11/16 00:39:58;;;;;;;3.20;2.40;;;21.30;52.20;;;;;;5036440;28;20058;-59
2021/11/16 00:42:25;;;;;;;3.50;2.15;;;21.30;52.20;;;;;;5040155;28;20538;-60
2021/11/16 00:44:51;;;;;;;3.17;2.38;;;21.30;52.30;;;;;;5041483;28;20025;-59
2021/11/16 00:47:17;;;;;;;3.13;2.38;;;21.30;52.20;;;;;;5039893;28;20503;-57
2021/11/16 00:49:43;;;;;;;3.25;2.47;;;21.30;52.30;;;;;;5041836;28;20524;-59
2021/11/16 00:52:09;;;;;;;3.03;2.40;;;21.30;52.30;;;;;;5035261;28;20361;-56
2021/11/16 00:54:35;;;;;;;3.72;2.30;;;21.30;52.30;;;;;;5046370;28;20036;-57
2021/11/16 00:57:01;;;;;;;3.03;2.25;;;21.20;52.20;;;;;;5033147;28;20037;-59
2021/11/16 00:59:27;;;;;;;3.08;2.30;;;21.20;52.20;;;;;;5040138;28;20112;-58
2021/11/16 01:01:53;;;;;;;3.20;2.33;;;21.20;52.20;;;;;;5032217;28;20128;-55
2021/11/16 01:04:19;;;;;;;3.80;2.45;;;21.20;52.30;;;;;;5036102;28;20044;-55
2021/11/16 01:06:45;;;;;;;3.20;2.40;;;21.20;52.30;;;;;;5041092;28;20025;-54
2021/11/16 01:09:11;;;;;;;3.05;2.30;;;21.20;52.30;;;;;;5034084;28;20152;-60
2021/11/16 01:11:37;;;;;;;3.08;2.50;;;21.20;52.30;;;;;;5034961;28;20033;-59
2021/11/16 01:14:03;;;;;;;3.60;2.60;;;21.20;52.40;;;;;;5036955;28;20041;-53
2021/11/16 01:16:29;;;;;;;3.03;2.20;;;21.20;52.30;;;;;;5033631;28;20508;-60
2021/11/16 01:18:56;;;;;;;4.15;2.83;;;21.20;52.30;;;;;;5031321;28;20033;-60
2021/11/16 01:21:22;;;;;;;3.58;2.63;;;21.20;52.30;;;;;;5032770;28;20057;-56
2021/11/16 01:23:47;;;;;;;4.68;2.75;;;21.10;52.30;;;;;;5039350;28;20029;-60
2021/11/16 01:26:14;;;;;;;3.67;2.38;;;21.20;52.40;;;;;;5031928;28;20040;-56
2021/11/16 01:28:40;;;;;;;3.47;2.75;;;21.10;52.30;;;;;;5036700;28;20148;-55
2021/11/16 01:31:07;;;;;;;3.15;2.30;;;21.20;52.40;;;;;;5038989;28;20041;-54
2021/11/16 01:33:49;;;;;;;3.13;2.33;;;21.10;52.30;;;;;;5032815;28;20668;-59
2021/11/16 01:36:15;;;;;;;3.50;2.45;;;21.10;52.30;;;;;;5037630;28;20119;-58
2021/11/16 01:38:42;;;;;;;3.85;2.40;;;21.10;52.30;;;;;;5033203;28;20049;-58
2021/11/16 01:41:09;;;;;;;3.33;2.45;;;21.10;52.30;;;;;;5032348;28;20529;-55
2021/11/16 01:43:36;;;;;;;3.55;2.72;;;21.10;52.40;;;;;;5032976;28;20088;-56
2021/11/16 01:46:05;;;;;;;4.03;2.60;;;21.10;52.40;;;;;;5042629;28;20112;-54
2021/11/16 01:48:33;;;;;;;3.50;2.53;;;21.10;52.40;;;;;;5043435;28;20075;-52
2021/11/16 01:50:59;;;;;;;3.97;3.03;;;21.10;52.40;;;;;;5038698;28;20548;-59
2021/11/16 01:53:25;;;;;;;3.00;2.40;;;21.10;52.40;;;;;;5032609;28;20040;-55
2021/11/16 01:55:52;;;;;;;3.33;2.47;;;21.10;52.40;;;;;;5036696;28;20429;-58
2021/11/16 01:58:17;;;;;;;3.95;2.42;;;21.10;52.50;;;;;;5038310;28;20035;-60
2021/11/16 02:00:45;;;;;;;4.00;2.33;;;21.00;52.40;;;;;;5034044;28;20037;-54
2021/11/16 02:03:11;;;;;;;4.35;2.30;;;21.00;52.40;;;;;;5029327;28;20036;-58
2021/11/16 02:05:53;;;;;;;3.67;2.67;;;21.00;52.40;;;;;;5045214;28;20087;-57
2021/11/16 02:08:20;;;;;;;3.80;2.50;;;21.00;52.40;;;;;;5041289;28;20112;-57
2021/11/16 02:10:50;;;;;;;3.55;2.55;;;21.00;52.40;;;;;;5038001;28;20033;-51
2021/11/16 02:13:20;;;;;;;3.45;2.50;;;21.00;52.40;;;;;;5032931;28;20029;-57
2021/11/16 02:15:48;;;;;;;3.78;2.70;;;21.00;52.50;;;;;;5034060;28;20036;-58
2021/11/16 02:18:14;;;;;;;3.58;2.60;;;21.00;52.40;;;;;;5033119;28;20036;-57
2021/11/16 02:20:42;;;;;;;3.50;2.58;;;21.00;52.50;;;;;;5034196;28;20079;-57
2021/11/16 02:23:08;;;;;;;3.13;2.50;;;21.00;52.50;;;;;;5042645;28;20124;-56
2021/11/16 02:25:35;;;;;;;3.97;2.70;;;21.00;52.50;;;;;;5039153;28;20021;-58
2021/11/16 02:28:02;;;;;;;3.35;2.45;;;21.00;52.50;;;;;;5033960;28;20033;-59
2021/11/16 02:30:28;;;;;;;3.40;2.47;;;21.00;52.50;;;;;;5032202;28;20048;-58
2021/11/16 02:32:54;;;;;;;4.78;2.70;;;21.00;52.50;;;;;;5036638;28;20135;-59
2021/11/16 02:35:22;;;;;;;3.38;2.35;;;21.00;52.50;;;;;;5040518;28;20434;-59
2021/11/16 02:37:49;;;;;;;3.65;2.83;;;20.90;52.50;;;;;;5068936;28;20684;-59
2021/11/16 02:40:15;;;;;;;4.00;2.60;;;20.90;52.50;;;;;;5033190;28;20105;-55
2021/11/16 02:42:42;;;;;;;3.60;2.50;;;20.90;52.50;;;;;;5044620;28;20021;-59
2021/11/16 02:45:09;;;;;;;4.05;2.90;;;20.90;52.40;;;;;;5030210;28;20160;-58
2021/11/16 02:47:35;;;;;;;3.35;2.50;;;20.90;52.50;;;;;;5034103;28;20036;-58
2021/11/16 02:50:03;;;;;;;3.38;2.47;;;20.90;52.50;;;;;;5032321;28;20032;-59
2021/11/16 02:52:29;;;;;;;3.63;2.58;;;20.90;52.50;;;;;;5034221;28;20032;-59
2021/11/16 02:54:54;;;;;;;3.20;2.35;;;20.90;52.50;;;;;;5030392;28;20033;-59
2021/11/16 02:57:21;;;;;;;3.50;2.50;;;20.90;52.50;;;;;;5036876;28;20704;-59
2021/11/16 02:59:47;;;;;;;3.53;2.50;;;20.90;52.50;;;;;;5035723;28;20098;-58
2021/11/16 03:02:13;;;;;;;4.00;2.72;;;20.90;52.50;;;;;;5028990;28;20049;-59
2021/11/16 03:04:45;;;;;;;3.95;2.60;;;20.90;52.50;;;;;;5037835;28;20040;-59
2021/11/16 03:07:12;;;;;;;3.50;2.65;;;20.90;52.60;;;;;;5038593;28;20389;-52
2021/11/16 03:09:39;;;;;;;3.75;2.78;;;20.80;52.50;;;;;;5041146;28;20043;-58
2021/11/16 03:12:05;;;;;;;3.22;2.45;;;20.90;52.60;;;;;;5032953;28;20029;-57
2021/11/16 03:14:30;;;;;;;3.40;2.58;;;20.90;52.60;;;;;;5040091;28;20430;-58
2021/11/16 03:16:57;;;;;;;3.80;2.70;;;20.90;52.60;;;;;;5041530;28;20098;-57
2021/11/16 03:19:23;;;;;;;3.80;2.50;;;20.80;52.60;;;;;;5028665;28;20114;-52
2021/11/16 03:21:57;;;;;;;3.78;2.65;;;20.80;52.60;;;;;;5039058;28;20052;-57
2021/11/16 03:24:26;;;;;;;3.67;2.80;;;20.80;52.60;;;;;;5040158;28;20117;-53
2021/11/16 03:26:53;;;;;;;3.47;2.60;;;20.80;52.60;;;;;;5034997;28;20029;-58
2021/11/16 03:29:23;;;;;;;3.60;2.70;;;20.80;52.60;;;;;;5029930;28;20045;-59
2021/11/16 03:32:04;;;;;;;3.63;2.65;;;20.80;52.60;;;;;;5032029;28;20168;-59
2021/11/16 03:34:29;;;;;;;3.58;2.55;;;20.80;52.60;;;;;;5038505;28;20177;-59
2021/11/16 03:36:55;;;;;;;3.33;2.67;;;20.80;52.60;;;;;;5031978;28;20029;-58
2021/11/16 03:39:21;;;;;;;3.33;2.40;;;20.80;52.60;;;;;;5031910;28;20128;-58
2021/11/16 03:41:47;;;;;;;3.60;2.90;;;20.80;52.60;;;;;;5029625;28;20021;-58
2021/11/16 03:44:13;;;;;;;3.92;2.70;;;20.80;52.60;;;;;;5028880;28;20092;-56
2021/11/16 03:46:38;;;;;;;3.60;2.70;;;20.80;52.60;;;;;;5031557;28;20044;-60
2021/11/16 03:49:05;;;;;;;3.70;2.70;;;20.80;52.60;;;;;;5039004;28;20029;-61
2021/11/16 03:51:30;;;;;;;3.50;2.60;;;20.80;53.10;;;;;;5037727;28;20041;-56
2021/11/16 03:53:56;;;;;;;3.60;2.85;;;20.80;52.60;;;;;;5028009;28;20102;-58
2021/11/16 03:56:23;;;;;;;3.45;2.70;;;20.80;52.70;;;;;;5032306;28;20029;-59
2021/11/16 03:58:48;;;;;;;3.60;2.38;;;20.80;52.70;;;;;;5037449;28;20067;-58
2021/11/16 04:01:16;;;;;;;3.70;2.60;;;20.70;52.60;;;;;;5030825;28;20069;-58
2021/11/16 04:03:43;;;;;;;3.70;3.00;;;20.80;52.70;;;;;;5034647;28;20915;-60
2021/11/16 04:06:09;;;;;;;4.38;2.95;;;20.70;52.60;;;;;;5040207;28;20026;-59
2021/11/16 04:08:36;;;;;;;4.00;3.08;;;20.70;52.60;;;;;;5033132;28;20025;-58
2021/11/16 04:11:02;;;;;;;3.72;2.80;;;20.70;52.60;;;;;;5034144;28;20025;-60
2021/11/16 04:13:28;;;;;;;3.75;2.65;;;20.70;52.60;;;;;;5041131;28;20438;-59
2021/11/16 04:15:53;;;;;;;4.43;2.92;;;20.70;52.70;;;;;;5034612;28;20071;-54
2021/11/16 04:18:20;;;;;;;3.50;2.70;;;20.70;52.60;;;;;;5040921;28;20491;-58
2021/11/16 04:20:49;;;;;;;3.35;2.58;;;20.70;52.60;;;;;;5037227;28;20118;-59
2021/11/16 04:23:16;;;;;;;3.45;2.70;;;20.70;52.60;;;;;;5037496;28;20239;-58
2021/11/16 04:25:43;;;;;;;3.30;2.58;;;20.70;52.70;;;;;;5031407;28;20021;-59
2021/11/16 04:28:11;;;;;;;3.65;2.90;;;20.70;52.70;;;;;;5036772;28;20594;-58
2021/11/16 04:30:37;;;;;;;3.35;2.70;;;20.70;52.70;;;;;;5040665;28;20041;-59
2021/11/16 04:33:04;;;;;;;3.42;2.60;;;20.70;52.70;;;;;;5035069;28;20032;-55
2021/11/16 04:35:31;;;;;;;3.63;2.67;;;20.70;52.70;;;;;;5038936;28;20036;-61
2021/11/16 04:37:59;;;;;;;3.30;2.58;;;20.70;52.70;;;;;;5037104;28;20036;-58
2021/11/16 04:40:33;;;;;;;3.60;2.67;;;20.70;52.70;;;;;;5034571;28;20100;-57
2021/11/16 04:43:00;;;;;;;3.30;2.60;;;20.70;52.80;;;;;;5033523;28;20468;-58
2021/11/16 04:45:26;;;;;;;3.67;2.47;;;20.70;52.70;;;;;;5029876;28;20036;-59
2021/11/16 04:48:02;;;;;;;3.58;2.70;;;20.70;52.80;;;;;;5041661;28;20460;-59
2021/11/16 05:02:34;;;;;;;3.13;2.47;;;20.70;52.80;;;;;;5034653;28;20113;-59
2021/11/16 05:03:27;;;;;;;3.70;2.75;;;20.60;52.80;;;;;;5033650;28;20032;-56
2021/11/16 05:05:54;;;;;;;3.40;2.47;;;20.60;52.80;;;;;;5032376;28;20487;-59
2021/11/16 05:08:19;;;;;;;3.20;2.50;;;20.60;52.70;;;;;;5039403;28;20108;-57
2021/11/16 05:10:45;;;;;;;3.70;2.83;;;20.60;52.70;;;;;;5035708;28;20152;-57
2021/11/16 05:13:11;;;;;;;3.83;2.90;;;20.60;52.70;;;;;;5030014;28;20044;-59
2021/11/16 05:15:40;;;;;;;3.67;2.45;;;20.60;52.70;;;;;;5030415;28;20037;-56
2021/11/16 05:18:06;;;;;;;;;;;20.60;52.80;;;;;;5042783;28;20029;-60
2021/11/16 05:20:32;;;;;;;3.20;2.58;;;20.60;52.80;;;;;;5038008;28;20750;-59
2021/11/16 05:22:57;;;;;;;3.30;2.53;;;20.60;52.80;;;;;;5034753;28;20482;-59
2021/11/16 05:25:23;;;;;;;3.47;2.55;;;20.60;52.80;;;;;;5043949;28;20030;-57
2021/11/16 05:27:49;;;;;;;4.00;2.40;;;20.60;52.80;;;;;;5031673;28;20514;-57
2021/11/16 05:30:15;;;;;;;3.50;2.60;;;20.60;52.80;;;;;;5041178;28;20033;-59
2021/11/16 05:32:42;;;;;;;3.60;2.90;;;20.60;52.80;;;;;;5027841;28;20049;-59
2021/11/16 05:35:10;;;;;;;3.63;2.70;;;20.60;52.80;;;;;;5043837;28;20021;-56
2021/11/16 05:37:35;;;;;;;3.88;2.50;;;20.60;52.80;;;;;;5041257;28;20065;-58
2021/11/16 05:40:03;;;;;;;4.15;2.60;;;20.60;52.80;;;;;;5034461;28;20861;-58
2021/11/16 05:42:29;;;;;;;3.65;2.75;;;20.60;52.80;;;;;;5037733;28;20402;-59
2021/11/16 05:44:55;;;;;;;3.25;2.50;;;20.60;52.80;;;;;;5031159;28;20030;-59
2021/11/16 05:47:21;;;;;;;3.53;2.63;;;20.60;52.90;;;;;;5036484;28;20044;-59
2021/11/16 05:49:47;;;;;;;3.92;2.30;;;20.60;52.90;;;;;;5038779;28;20158;-59
2021/11/16 05:52:13;;;;;;;3.88;2.55;;;20.60;52.90;;;;;;5042503;28;20483;-58
2021/11/16 05:54:42;;;;;;;3.70;2.70;;;20.60;52.90;;;;;;5028747;28;20064;-57
2021/11/16 05:57:09;;;;;;;3.78;2.58;;;20.60;52.90;;;;;;5034987;28;20059;-56
2021/11/16 05:59:36;;;;;;;3.67;2.50;;;20.60;52.90;;;;;;5034315;28;20093;-60
2021/11/16 06:02:06;;;;;;;3.70;2.58;;;20.60;52.90;;;;;;5035167;28;20060;-58
2021/11/16 06:04:33;;;;;;;3.47;2.47;;;20.60;52.90;;;;;;5040511;28;20395;-58
2021/11/16 06:06:59;;;;;;;3.75;2.90;;;20.60;52.90;;;;;;5036612;28;20051;-55
2021/11/16 06:09:26;;;;;;;3.45;2.60;;;20.60;53.00;;;;;;5031592;28;20028;-58
2021/11/16 06:11:54;;;;;;;3.60;2.63;;;20.60;53.00;;;;;;5038175;28;20073;-55
2021/11/16 06:14:20;;;;;;;3.35;2.30;;;20.60;53.00;;;;;;5035739;28;20024;-57
2021/11/16 06:16:46;;;;;;;3.40;2.42;;;20.60;52.90;;;;;;5040734;28;20047;-59
2021/11/16 06:19:12;;;;;;;4.00;2.70;;;20.60;53.00;;;;;;5030233;28;20068;-59
2021/11/16 06:21:38;;;;;;;3.78;2.67;;;20.60;53.00;;;;;;5037426;28;20056;-58
2021/11/16 06:24:04;;;;;;;3.78;2.78;;;20.60;53.00;;;;;;5031107;28;20048;-52
2021/11/16 06:26:32;;;;;;;3.85;2.90;;;20.60;53.00;;;;;;5038522;28;20029;-61
2021/11/16 06:29:04;;;;;;;3.55;2.70;;;20.60;53.00;;;;;;5036016;28;20079;-58
2021/11/16 06:31:30;;;;;;;3.45;2.70;;;20.60;53.00;;;;;;5040962;28;20168;-59
2021/11/16 06:34:02;;;;;;;3.22;2.33;;;20.60;53.50;;;;;;5036944;28;20059;-56
2021/11/16 06:36:36;;;;;;;3.83;2.60;;;20.60;53.00;;;;;;5043565;28;20078;-58
2021/11/16 06:39:06;;;;;;;3.50;2.47;;;20.50;53.00;;;;;;5029332;28;20076;-58
2021/11/16 06:41:32;;;;;;;3.28;2.50;;;20.50;53.00;;;;;;5037416;28;20041;-59
2021/11/16 06:43:58;;;;;;;3.50;2.35;;;20.60;53.00;;;;;;5026289;28;20025;-58
2021/11/16 06:46:23;;;;;;;4.25;2.85;;;20.60;53.00;;;;;;5030427;28;20045;-60
2021/11/16 06:48:49;;;;;;;3.60;2.60;;;20.60;53.10;;;;;;5029887;28;20037;-59
2021/11/16 06:51:15;;;;;;;3.20;2.55;;;20.60;53.00;;;;;;5032323;28;20036;-59
2021/11/16 06:53:40;;;;;;;3.40;2.40;;;20.60;53.00;;;;;;5031303;28;20039;-57
2021/11/16 06:56:06;;;;;;;3.55;2.58;;;20.50;53.00;;;;;;5032488;28;20166;-60
2021/11/16 06:58:34;;;;;;;3.97;2.60;;;20.50;53.00;;;;;;5034849;28;20512;-59
2021/11/16 07:01:01;;;;;;;3.42;2.63;;;20.60;53.20;;;;;;5029964;28;20403;-58
2021/11/16 07:03:27;;;;;;;3.63;2.40;;;20.60;53.50;;;;;;5034884;28;20025;-58
2021/11/16 07:05:58;;;;;;;3.85;2.55;;;20.60;53.50;;;;;;5042410;28;20028;-58
2021/11/16 07:08:38;;;;;;;4.50;2.80;;;20.60;53.40;;;;;;5030464;28;20036;-59
2021/11/16 07:11:13;;;;;;;3.50;2.53;;;20.60;53.90;;;;;;5032751;28;20040;-58
2021/11/16 07:14:02;;;;;;;3.30;2.38;;;20.50;53.30;;;;;;5032760;28;20041;-59
2021/11/16 07:16:39;;;;;;;4.18;2.70;;;20.60;53.30;;;;;;5033510;28;20494;-58
2021/11/16 07:19:08;;;;;;;3.78;2.78;;;20.60;53.30;;;;;;5035008;28;20128;-57
2021/11/16 07:21:45;;;;;;;4.38;2.80;;;20.60;53.30;;;;;;5029377;28;20045;-55
2021/11/16 07:24:17;;;;;;;4.05;2.88;;;20.60;53.30;;;;;;5034398;28;20349;-59
2021/11/16 07:26:54;;;;;;;4.47;2.72;;;20.50;53.20;;;;;;5038622;28;20684;-55
2021/11/16 07:29:38;;;;;;;3.75;2.70;;;20.60;53.30;;;;;;5033408;28;20485;-57
2021/11/16 07:32:06;;;;;;;4.15;2.67;;;20.50;53.20;;;;;;5032270;28;20585;-56
2021/11/16 07:34:34;;;;;;;3.80;2.45;;;20.50;53.20;;;;;;5032989;28;20037;-59
2021/11/16 07:37:03;;;;;;;4.20;2.85;;;20.50;53.20;;;;;;5032692;28;20033;-59
2021/11/16 07:39:42;;;;;;;3.88;2.55;;;20.50;53.20;;;;;;5040970;28;20032;-58
2021/11/16 07:42:09;;;;;;;3.85;2.60;;;20.60;53.20;;;;;;5036331;28;20080;-58
2021/11/16 07:44:35;;;;;;;3.97;2.65;;;20.50;53.20;;;;;;5041027;28;20092;-59
2021/11/16 07:47:03;;;;;;;4.30;2.88;;;20.50;53.20;;;;;;5041758;28;20025;-59
2021/11/16 07:49:29;;;;;;;4.03;2.80;;;20.50;53.20;;;;;;5039311;28;20074;-60
2021/11/16 07:51:55;;;;;;;3.67;2.60;;;20.50;53.20;;;;;;5033256;28;20037;-55
2021/11/16 07:54:27;;;;;;;3.67;2.65;;;20.50;53.20;;;;;;5034786;28;20123;-57
2021/11/16 07:56:53;;;;;;;4.38;2.92;;;20.50;53.20;;;;;;5038998;28;20037;-58
2021/11/16 07:59:23;;;;;;;3.75;2.70;;;20.50;53.20;;;;;;5039384;28;20064;-55
2021/11/16 08:06:52;;;;;;;6.60;2.75;;;20.50;53.20;;;;;;5042683;28;20037;-59
2021/11/16 08:09:30;;;;;;;4.03;2.60;;;20.50;53.20;;;;;;5036857;28;20022;-55
2021/11/16 08:14:44;;;;;;;3.80;2.60;;;20.50;53.20;;;;;;5039371;28;20072;-59
2021/11/16 08:17:10;;;;;;;3.78;2.75;;;20.50;53.30;;;;;;5042738;28;20037;-57
2021/11/16 08:19:38;;;;;;;3.80;2.53;;;20.50;53.20;;;;;;5040954;28;20048;-57
2021/11/16 08:22:13;;;;;;;3.90;2.85;;;20.50;53.30;;;;;;5039238;28;20826;-57
2021/11/16 08:24:45;;;;;;;3.60;2.50;;;20.50;53.20;;;;;;5032409;28;20036;-58
2021/11/16 08:27:28;;;;;;;4.10;2.80;;;20.50;53.30;;;;;;5035963;28;20089;-59
2021/11/16 08:30:01;;;;;;;3.60;2.47;;;20.50;53.30;;;;;;5041677;28;20032;-54
2021/11/16 08:32:34;;;;;;;4.80;2.80;;;20.50;53.30;;;;;;5039615;28;20029;-59
2021/11/16 08:35:02;;;;;;;4.35;2.70;;;20.50;53.30;;;;;;5043762;28;20120;-58
2021/11/16 08:37:31;;;;;;;4.03;2.55;;;20.50;53.30;;;;;;5032373;28;20887;-58
2021/11/16 08:40:03;;;;;;;4.38;3.05;;;20.50;53.30;;;;;;5046100;28;20078;-59
2021/11/16 08:42:43;;;;;;;4.32;3.00;;;20.50;53.30;;;;;;5030507;28;20040;-59
2021/11/16 08:45:14;;;;;;;3.92;2.70;;;20.50;53.30;;;;;;5035279;28;20128;-58
2021/11/16 08:47:50;;;;;;;4.38;2.80;;;20.40;53.20;;;;;;5037174;28;20040;-55
2021/11/16 08:50:32;;;;;;;4.25;2.83;;;20.50;53.30;;;;;;5038747;28;20052;-55
2021/11/16 08:53:06;;;;;;;4.40;2.78;;;20.40;53.30;;;;;;5038760;28;20041;-58
2021/11/16 08:55:33;;;;;;;3.70;2.63;;;20.50;53.30;;;;;;5038774;28;20594;-57
2021/11/16 08:58:02;;;;;;;3.70;2.90;;;20.40;53.20;;;;;;5030877;28;20037;-59
2021/11/16 09:00:36;;;;;;;4.38;2.75;;;20.40;53.30;;;;;;5037616;28;20053;-54
2021/11/16 09:03:08;;;;;;;4.22;2.72;;;20.40;53.30;;;;;;5033031;28;20028;-59
2021/11/16 09:05:36;;;;;;;4.13;2.92;;;20.40;53.30;;;;;;5040007;28;20126;-57
2021/11/16 09:08:04;;;;;;;4.43;3.00;;;20.40;53.30;;;;;;5042245;28;20038;-59
2021/11/16 09:10:36;;;;;;;4.93;3.28;;;20.40;53.30;;;;;;5044551;28;20139;-58
2021/11/16 09:13:05;;;;;;;4.70;2.95;;;20.40;53.30;;;;;;5038051;28;20840;-56
2021/11/16 09:15:36;;;;;;;5.32;3.10;;;20.40;53.30;;;;;;5034846;28;20033;-59
2021/11/16 09:18:22;;;;;;;3.47;2.50;;;20.40;53.30;;;;;;5041623;28;20029;-59
2021/11/16 09:21:03;;;;;;;3.80;2.70;;;20.40;53.30;;;;;;5042164;28;20036;-55
2021/11/16 09:23:32;;;;;;;4.32;3.10;;;20.40;53.30;;;;;;5033835;28;20037;-56
2021/11/16 09:26:08;;;;;;;4.40;2.85;;;20.40;53.30;;;;;;5038995;28;20017;-57
2021/11/16 09:28:35;;;;;;;5.03;3.25;;;20.40;53.30;;;;;;5042708;28;20040;-59
2021/11/16 09:31:16;;;;;;;4.03;3.05;;;20.40;53.30;;;;;;5037815;28;20037;-58
2021/11/16 09:33:42;;;;;;;4.45;3.20;;;20.40;53.30;;;;;;5040683;28;20048;-58
2021/11/16 09:36:08;;;;;;;3.58;2.60;;;20.40;53.40;;;;;;5037285;28;20025;-55
2021/11/16 09:38:47;;;;;;;5.45;3.10;;;20.40;53.40;;;;;;5031553;28;20090;-58
2021/11/16 09:41:20;;;;;;;4.53;2.85;;;20.40;53.40;;;;;;5043524;28;20020;-60
2021/11/16 09:43:56;;;;;;;3.78;2.85;;;20.40;53.40;;;;;;5040799;28;20461;-58
2021/11/16 09:46:22;;;;;;;4.07;2.80;;;20.40;53.40;;;;;;5046990;28;20582;-59
2021/11/16 09:48:57;;;;;;;3.95;2.90;;;20.40;53.40;;;;;;5035266;28;20057;-59
2021/11/16 09:51:22;;;;;;;3.75;2.80;;;20.40;53.40;;;;;;5035761;28;20032;-57
2021/11/16 09:54:03;;;;;;;4.40;2.70;;;20.40;53.40;;;;;;5036264;28;20033;-58
2021/11/16 09:56:30;;;;;;;4.07;2.65;;;20.40;53.40;;;;;;5031539;28;20037;-59
2021/11/16 09:58:57;;;;;;;3.95;2.85;;;20.40;53.40;;;;;;5037269;28;20068;-58
2021/11/16 10:01:26;;;;;;;4.15;2.97;;;20.40;53.40;;;;;;5034623;28;20060;-60
2021/11/16 10:04:16;;;;;;;4.32;2.90;;;20.40;53.40;;;;;;5041525;28;20111;-59
2021/11/16 10:06:43;;;;;;;3.92;2.80;;;20.40;53.40;;;;;;5037250;28;20109;-57
2021/11/16 10:09:10;;;;;;;3.83;2.90;;;20.40;53.40;;;;;;5040574;28;20393;-60
2021/11/16 10:11:41;;;;;;;5.07;3.28;;;20.40;53.50;;;;;;5039071;28;20668;-59
2021/11/16 10:14:16;;;;;;;4.20;2.85;;;20.40;53.40;;;;;;5037339;28;20029;-59
2021/11/16 10:16:42;;;;;;;4.78;3.13;;;20.40;53.50;;;;;;5038698;28;20039;-59
2021/11/16 10:19:08;;;;;;;3.72;2.53;;;20.30;53.40;;;;;;5034881;28;20030;-60
2021/11/16 10:21:35;;;;;;;5.00;2.97;;;20.30;53.40;;;;;;5041968;28;20060;-56
2021/11/16 10:24:01;;;;;;;4.47;3.15;;;20.40;53.50;;;;;;5028792;28;20061;-56
2021/11/16 10:26:34;;;;;;;5.05;2.95;;;20.30;53.40;;;;;;5040895;28;20024;-60
2021/11/16 10:29:01;;;;;;;4.40;2.78;;;20.30;53.40;;;;;;5033424;28;20115;-59
2021/11/16 10:31:33;;;;;;;4.10;2.90;;;20.30;53.40;;;;;;5046171;28;20130;-58
2021/11/16 10:33:59;;;;;;;4.75;3.10;;;20.30;53.40;;;;;;5041468;28;20029;-59
2021/11/16 10:36:27;;;;;;;4.05;2.75;;;20.30;53.40;;;;;;5040213;28;20035;-59
2021/11/16 10:39:00;;;;;;;4.45;2.97;;;20.30;53.50;;;;;;5029895;28;20033;-58
2021/11/16 10:41:30;;;;;;;3.95;2.72;;;20.30;53.50;;;;;;5035496;28;20030;-58
2021/11/16 10:44:01;;;;;;;4.57;3.08;;;20.30;53.50;;;;;;5034341;28;20057;-59
2021/11/16 10:46:30;;;;;;;4.45;2.90;;;20.30;53.50;;;;;;5035754;28;20055;-58
2021/11/16 10:49:01;;;;;;;5.07;3.25;;;20.30;53.50;;;;;;5028952;28;20032;-57
2021/11/16 10:51:32;;;;;;;4.28;2.97;;;20.30;53.50;;;;;;5030728;28;20531;-58
2021/11/16 10:53:59;;;;;;;4.40;2.83;;;20.30;53.50;;;;;;5032178;28;20044;-58
2021/11/16 10:56:30;;;;;;;3.70;2.80;;;20.30;53.50;;;;;;5038990;28;20021;-58
2021/11/16 10:59:09;;;;;;;4.05;2.95;;;20.30;53.50;;;;;;5034142;28;20141;-57
2021/11/16 11:01:51;;;;;;;5.28;2.97;;;20.30;53.50;;;;;;5031756;28;20075;-58
2021/11/16 11:04:19;;;;;;;4.53;3.08;;;20.30;53.50;;;;;;5038783;28;20028;-59
2021/11/16 11:06:49;;;;;;;3.63;2.83;;;20.30;53.50;;;;;;5037176;28;20124;-60
2021/11/16 11:09:15;;;;;;;;;;;20.30;53.50;;;;;;5035690;28;20045;-58
2021/11/16 11:11:43;;;;;;;4.72;3.13;;;20.30;53.50;;;;;;5036657;28;19916;-59
2021/11/16 11:14:16;;;;;;;4.13;3.00;;;20.30;53.50;;;;;;5033491;28;20430;-57
2021/11/16 11:17:03;;;;;;;3.97;2.67;;;20.30;53.50;;;;;;5037598;28;20041;-58
2021/11/16 11:19:31;;;;;;;4.15;2.70;;;20.30;53.60;;;;;;5038256;28;20035;-59
2021/11/16 11:22:01;;;;;;;4.40;3.07;;;20.30;53.50;;;;;;5036326;28;20587;-59
2021/11/16 11:24:44;;;;;;;3.67;2.70;;;20.30;53.50;;;;;;5032325;28;20278;-57
2021/11/16 11:29:55;;;;;;;3.85;2.80;;;20.30;53.50;;;;;;5042386;28;20057;-60
2021/11/16 11:32:38;;;;;;;4.47;3.00;;;20.30;53.50;;;;;;5033908;28;20209;-55
2021/11/16 11:35:14;;;;;;;4.32;3.15;;;20.30;53.60;;;;;;5041941;28;20051;-59
2021/11/16 11:37:54;;;;;;;4.28;3.28;;;20.30;53.60;;;;;;5030406;28;20041;-59
2021/11/16 11:40:32;;;;;;;3.80;2.75;;;20.20;53.50;;;;;;5029863;28;20087;-59
2021/11/16 11:43:01;;;;;;;4.45;2.90;;;20.20;53.50;;;;;;5035273;28;20804;-59
2021/11/16 11:45:34;;;;;;;4.22;2.92;;;20.30;53.50;;;;;;5028399;28;20068;-56
2021/11/16 11:48:02;;;;;;;3.88;2.75;;;20.20;53.50;;;;;;5040252;28;20566;-59
2021/11/16 11:50:38;;;;;;;4.27;2.93;;;20.30;53.50;;;;;;5032471;28;20067;-59
2021/11/16 11:53:20;;;;;;;4.00;3.00;;;20.20;53.50;;;;;;5031043;28;20044;-59
2021/11/16 11:55:52;;;;;;;3.55;2.70;;;20.20;53.50;;;;;;5040984;28;20486;-59
2021/11/16 11:58:20;;;;;;;4.32;2.83;;;20.30;53.60;;;;;;5030980;28;20034;-59
2021/11/16 12:00:49;;;;;;;3.85;2.65;;;20.20;53.50;;;;;;5035788;28;20037;-59
2021/11/16 12:03:15;;;;;;;4.68;3.22;;;20.20;53.60;;;;;;5029309;28;20082;-59
2021/11/16 12:05:43;;;;;;;3.83;2.55;;;20.20;53.60;;;;;;5027768;28;20048;-59
2021/11/16 12:08:10;;;;;;;4.20;3.20;;;20.20;53.60;;;;;;5026173;28;20025;-59
2021/11/16 12:10:43;;;;;;;4.57;2.97;;;20.20;53.60;;;;;;5033363;28;20542;-59
2021/11/16 12:13:10;;;;;;;3.70;2.70;;;20.20;53.60;;;;;;5025729;28;20040;-57
2021/11/16 12:15:55;;;;;;;4.45;2.92;;;20.20;53.60;;;;;;5028238;28;20040;-60
2021/11/16 12:18:38;;;;;;;4.72;3.00;;;20.20;53.60;;;;;;5033051;28;20121;-59
2021/11/16 12:21:05;;;;;;;4.30;2.85;;;20.20;53.60;;;;;;5030248;28;20025;-59
2021/11/16 12:23:50;;;;;;;5.28;3.30;;;20.20;53.60;;;;;;5032939;28;20544;-58
2021/11/16 12:26:16;;;;;;;4.18;2.88;;;20.20;53.60;;;;;;5035176;28;20096;-58
2021/11/16 12:28:44;;;;;;;4.13;2.88;;;20.20;53.60;;;;;;5027336;28;20037;-59
2021/11/16 12:31:24;;;;;;;4.10;2.90;;;20.20;54.20;;;;;;5032336;28;20098;-59
2021/11/16 12:33:50;;;;;;;4.65;3.10;;;20.20;53.70;;;;;;5034705;28;20029;-58
2021/11/16 12:36:43;;;;;;;4.60;3.00;;;20.20;53.60;;;;;;5041868;28;20037;-55
2021/11/16 12:39:22;;;;;;;4.40;2.90;;;20.20;53.70;;;;;;5026075;28;20041;-55
2021/11/16 12:41:51;;;;;;;;;;;20.20;53.70;;;;;;5033566;28;20025;-60
2021/11/16 12:44:38;;;;;;;4.32;3.05;;;20.20;53.70;;;;;;5027527;28;19917;-58
2021/11/16 12:47:06;;;;;;;3.95;2.78;;;20.20;53.60;;;;;;5032299;28;20104;-59
2021/11/16 12:49:36;;;;;;;4.13;2.97;;;20.20;53.70;;;;;;5027760;28;21836;-56
2021/11/16 12:52:06;;;;;;;5.28;3.10;;;20.20;53.90;;;;;;5036088;28;20063;-57
2021/11/16 12:54:36;;;;;;;5.85;3.58;;;20.30;54.10;;;;;;5033174;28;20985;-57
2021/11/16 12:57:02;;;;;;;5.15;3.63;;;20.30;54.10;;;;;;5032873;28;20243;-59
2021/11/16 12:59:34;;;;;;;5.55;3.40;;;20.30;53.90;;;;;;5033114;28;20047;-60
2021/11/16 13:02:05;;;;;;;5.68;3.70;;;20.40;53.90;;;;;;5030048;28;20033;-58
2021/11/16 13:04:49;;;;;;;4.57;3.67;;;20.40;53.80;;;;;;5035196;28;20032;-59
2021/11/16 13:07:26;;;;;;;4.97;3.38;;;20.40;53.70;;;;;;5031290;28;20777;-57
2021/11/16 13:09:53;;;;;;;5.40;3.75;;;20.50;53.60;;;;;;5032276;28;20067;-59
2021/11/16 13:12:35;;;;;;;6.90;3.97;;;20.50;53.80;;;;;;5031641;28;20525;-57
2021/11/16 13:15:08;;;;;;;4.30;3.17;;;20.50;53.60;;;;;;5030487;28;20029;-59
2021/11/16 13:17:51;;;;;;;5.35;3.40;;;20.60;53.60;;;;;;5035775;28;20098;-57
2021/11/16 13:20:33;;;;;;;5.20;3.20;;;20.60;53.50;;;;;;5033797;28;20211;-58
2021/11/16 13:23:05;;;;;;;4.95;3.40;;;20.60;53.50;;;;;;5032367;28;20174;-59